Time;durP1;ratioP1;P1;durP2;ratioP2;P2;SDS_P1;SDS_P2;PMS_P1;PMS_P2;Temp;Humidity;BMP_temperature;BMP_pressure;BME280_temperature;BME280_humidity;BME280_pressure;Samples;Min_cycle;Max_cycle;Signal;HPM_P1;HPM_P2
2022/06/15 00:02:10;;;;;;;3.67;2.45;;;15.90;94.20;;;15.70;72.37;97315.25;5006367;28;20029;-40
2022/06/15 00:04:36;;;;;;;4.07;2.20;;;15.80;94.00;;;15.71;72.05;97313.47;5007679;28;20171;-40
2022/06/15 00:07:02;;;;;;;3.72;1.95;;;15.80;93.90;;;15.65;72.99;97309.38;5001805;28;20056;-41
2022/06/15 00:09:28;;;;;;;4.10;2.30;;;15.80;94.30;;;15.44;73.12;97295.53;5010538;28;20025;-40
2022/06/15 00:11:53;;;;;;;5.18;2.42;;;15.70;94.40;;;15.55;73.00;97314.34;5016776;28;20029;-43
2022/06/15 00:14:25;;;;;;;3.47;2.03;;;15.60;94.40;;;15.37;73.04;97284.38;5017503;28;20079;-40
2022/06/15 00:16:51;;;;;;;4.15;2.15;;;15.60;94.40;;;15.46;73.26;97309.56;5016577;28;20084;-41
2022/06/15 00:19:18;;;;;;;6.30;2.50;;;15.60;94.60;;;15.42;73.92;97310.72;5021387;28;20486;-40
2022/06/15 00:21:44;;;;;;;4.35;2.45;;;15.50;94.80;;;15.25;73.80;97285.97;5013884;28;20380;-41
2022/06/15 00:24:10;;;;;;;3.60;2.40;;;15.50;94.80;;;15.35;74.69;97310.19;5012463;28;20029;-41
2022/06/15 00:26:36;;;;;;;4.03;2.40;;;15.50;95.20;;;15.30;74.94;97316.72;5014039;28;20064;-41
2022/06/15 00:29:02;;;;;;;4.47;2.25;;;15.40;95.20;;;15.24;75.33;97317.94;5009677;28;20042;-40
2022/06/15 00:31:28;;;;;;;4.40;2.50;;;15.40;95.40;;;15.23;75.18;97313.56;5006634;28;20033;-41
2022/06/15 00:33:54;;;;;;;4.13;2.35;;;15.40;95.40;;;15.23;75.01;97311.75;5008329;28;20769;-41
2022/06/15 00:36:21;;;;;;;3.97;2.40;;;15.40;95.50;;;15.23;75.05;97301.13;5009041;28;21203;-41
2022/06/15 00:38:54;;;;;;;3.35;2.17;;;15.40;95.50;;;15.08;75.67;97289.56;5009607;28;20075;-40
2022/06/15 00:41:26;;;;;;;2.92;2.10;;;15.40;95.70;;;15.17;75.73;97304.13;5012676;28;20033;-40
2022/06/15 00:43:59;;;;;;;2.78;2.05;;;15.30;95.80;;;15.14;76.48;97306.13;5009087;28;20037;-41
2022/06/15 00:46:40;;;;;;;4.20;2.33;;;15.30;96.10;;;14.99;77.01;97278.63;5002488;28;20117;-40
2022/06/15 00:49:32;;;;;;;2.50;2.10;;;15.30;96.30;;;15.03;78.32;97293.44;5001613;28;21217;-40
2022/06/15 00:52:10;;;;;;;3.70;2.03;;;15.20;96.70;;;14.96;79.06;97290.25;5006452;28;20076;-40
2022/06/15 00:54:37;;;;;;;3.40;2.20;;;15.20;97.00;;;14.92;78.47;97280.78;5006246;28;20059;-41
2022/06/15 00:57:04;;;;;;;2.97;2.00;;;15.10;96.90;;;14.95;78.04;97283.25;5001302;28;20033;-40
2022/06/15 00:59:45;;;;;;;3.85;2.13;;;15.10;96.90;;;14.96;78.29;97279.66;5004051;28;20029;-41
2022/06/15 01:02:11;;;;;;;6.55;2.65;;;15.10;97.10;;;14.96;78.34;97277.00;5004905;28;22791;-40
2022/06/15 01:04:52;;;;;;;3.65;2.20;;;15.10;97.20;;;14.85;79.26;97253.69;5011051;28;20253;-41
2022/06/15 01:08:02;;;;;;;5.57;2.15;;;15.10;97.50;;;14.86;80.61;97267.84;5019398;28;20292;-40
2022/06/15 01:11:18;;;;;;;3.50;2.50;;;15.00;98.00;;;14.74;82.04;97269.38;5007942;28;20029;-41
2022/06/15 01:14:30;;;;;;;2.92;1.80;;;14.90;98.60;;;14.62;82.63;97252.34;4980924;28;20045;-40
2022/06/15 01:17:07;;;;;;;3.92;2.15;;;14.80;98.80;;;14.62;82.68;97255.00;4997475;28;20060;-41
2022/06/15 01:20:02;;;;;;;2.92;2.42;;;14.80;99.00;;;14.58;83.04;97252.59;5001157;28;20118;-41
2022/06/15 01:22:49;;;;;;;3.05;2.33;;;14.70;99.20;;;14.52;83.61;97251.97;4999115;28;20116;-41
2022/06/15 01:25:50;;;;;;;3.55;2.40;;;14.70;99.60;;;14.51;84.47;97257.34;5006114;28;20064;-40
2022/06/15 01:28:46;;;;;;;3.75;2.40;;;14.70;99.90;;;14.44;85.55;97254.16;5008944;28;20083;-40
2022/06/15 01:31:43;;;;;;;3.20;2.15;;;14.60;99.90;;;14.34;86.14;97245.03;4993504;23;1032727;-45
2022/06/15 01:34:32;;;;;;;5.88;2.13;;;14.60;99.90;;;14.39;86.57;97258.03;5016269;28;20028;-44
2022/06/15 01:37:21;;;;;;;5.75;2.45;;;14.60;99.90;;;14.35;88.19;97249.38;5034815;28;20073;-42
2022/06/15 01:40:06;;;;;;;4.05;2.60;;;14.50;99.90;;;14.30;88.50;97247.00;5015030;28;20059;-44
2022/06/15 01:42:38;;;;;;;4.07;2.80;;;14.50;99.90;;;14.35;88.11;97248.53;5001032;28;20481;-45
2022/06/15 01:45:11;;;;;;;4.78;2.72;;;14.50;99.90;;;14.39;87.48;97252.72;5000386;28;20634;-44
2022/06/15 01:47:41;;;;;;;5.22;2.75;;;14.50;99.90;;;14.40;86.99;97254.44;4997512;28;20343;-44
2022/06/15 01:50:21;;;;;;;5.38;2.63;;;14.60;99.90;;;14.41;86.81;97257.00;4998055;28;20033;-44
2022/06/15 01:53:13;;;;;;;3.55;2.40;;;14.50;99.90;;;14.37;87.33;97265.22;5006630;28;20239;-45
2022/06/15 01:55:47;;;;;;;3.00;2.15;;;14.50;99.90;;;14.31;86.68;97256.66;5003199;28;20095;-44
2022/06/15 01:58:16;;;;;;;3.03;2.35;;;14.50;99.90;;;14.27;86.50;97255.09;5004954;28;20025;-44
2022/06/15 02:01:00;;;;;;;3.90;2.40;;;14.40;99.90;;;14.04;86.53;97227.16;5001395;28;20037;-42
2022/06/15 02:03:36;;;;;;;3.67;2.63;;;14.40;99.90;;;14.13;86.36;97253.19;5022173;28;20545;-45
2022/06/15 02:06:25;;;;;;;3.95;2.90;;;14.30;99.90;;;14.11;85.16;97251.56;4996885;28;20047;-46
2022/06/15 02:09:25;;;;;;;3.70;2.30;;;14.30;99.90;;;14.07;85.04;97253.53;5003784;28;20488;-45
2022/06/15 02:11:51;;;;;;;7.13;2.38;;;14.30;99.90;;;14.03;85.79;97253.75;5001433;28;20041;-45
2022/06/15 02:14:25;;;;;;;3.45;2.40;;;14.20;99.90;;;13.96;87.59;97247.91;5026916;28;20060;-43
2022/06/15 02:17:03;;;;;;;4.78;2.60;;;14.20;99.90;;;13.91;88.30;97252.63;5001352;28;20041;-46
2022/06/15 02:19:39;;;;;;;4.22;2.15;;;14.10;99.90;;;13.84;89.07;97252.09;4998337;28;20035;-42
2022/06/15 02:22:13;;;;;;;4.75;2.33;;;14.00;99.90;;;13.81;89.51;97251.41;5002867;28;20026;-42
2022/06/15 02:24:40;;;;;;;3.30;2.50;;;14.00;99.90;;;13.79;89.93;97253.28;5028168;28;20029;-43
2022/06/15 02:27:08;;;;;;;3.42;2.65;;;14.00;99.90;;;13.75;89.98;97255.22;4999185;28;20037;-47
2022/06/15 02:29:37;;;;;;;5.00;2.80;;;13.90;99.90;;;13.71;90.34;97251.88;5004738;28;20033;-44
2022/06/15 02:32:10;;;;;;;3.47;2.60;;;13.90;99.90;;;13.69;90.93;97251.09;5008418;28;20415;-45
2022/06/15 02:34:37;;;;;;;3.13;2.40;;;13.80;99.90;;;13.65;90.78;97252.19;5001251;28;20037;-44
2022/06/15 02:37:05;;;;;;;4.75;2.90;;;13.80;99.90;;;13.65;90.84;97240.72;5003037;28;20044;-43
2022/06/15 02:39:32;;;;;;;4.22;2.58;;;13.80;99.90;;;13.67;91.13;97242.34;5004102;28;20033;-44
2022/06/15 02:42:02;;;;;;;6.32;2.55;;;13.80;99.90;;;13.67;92.18;97244.16;5006352;28;20767;-42
2022/06/15 02:44:32;;;;;;;5.57;2.92;;;13.80;99.90;;;13.64;92.56;97239.00;5003131;28;20033;-41
2022/06/15 02:46:59;;;;;;;6.35;2.88;;;13.80;99.90;;;13.60;93.20;97238.31;5002048;28;20036;-42
2022/06/15 02:49:25;;;;;;;4.45;2.85;;;13.80;99.90;;;13.58;93.39;97240.19;5003011;28;20052;-42
2022/06/15 02:52:02;;;;;;;4.00;2.72;;;13.80;99.90;;;13.54;94.37;97244.78;5002506;28;20497;-42
2022/06/15 02:54:39;;;;;;;3.85;2.38;;;13.70;99.90;;;13.51;95.03;97242.31;5005878;28;20041;-42
2022/06/15 02:57:05;;;;;;;4.00;2.75;;;13.70;99.90;;;13.47;95.09;97240.72;5002968;28;20045;-42
2022/06/15 02:59:31;;;;;;;5.15;2.90;;;13.70;99.90;;;13.44;95.75;97238.25;5004692;28;20033;-43
2022/06/15 03:01:57;;;;;;;4.32;2.78;;;13.70;99.90;;;13.42;96.35;97231.31;4997785;28;20503;-42
2022/06/15 03:04:23;;;;;;;4.88;2.72;;;13.60;99.90;;;13.38;96.47;97235.91;4999510;28;20038;-43
2022/06/15 03:06:49;;;;;;;5.20;3.03;;;13.60;99.90;;;13.36;95.92;97235.13;5005320;28;20077;-42
2022/06/15 03:09:15;;;;;;;5.40;2.67;;;13.60;99.90;;;13.35;95.35;97230.75;5007097;28;20039;-42
2022/06/15 03:11:41;;;;;;;4.25;2.67;;;13.60;99.90;;;13.38;96.02;97245.66;5001031;28;20044;-43
2022/06/15 03:14:08;;;;;;;4.43;2.85;;;13.50;99.90;;;13.33;96.51;97236.16;5007989;28;20553;-43
2022/06/15 03:16:34;;;;;;;5.25;3.00;;;13.50;99.90;;;13.29;97.12;97239.00;5005775;28;20216;-42
2022/06/15 03:19:01;;;;;;;3.95;2.67;;;13.50;99.90;;;13.25;97.17;97232.16;5005123;28;20517;-42
2022/06/15 03:21:27;;;;;;;4.80;3.00;;;13.40;99.90;;;13.18;97.33;97232.44;5004168;28;20037;-44
2022/06/15 03:23:53;;;;;;;3.85;3.00;;;13.40;99.90;;;13.16;97.51;97231.66;5001585;28;20123;-41
2022/06/15 03:26:19;;;;;;;5.72;2.90;;;13.40;99.90;;;13.16;97.11;97241.41;5002686;28;20492;-42
2022/06/15 03:28:45;;;;;;;3.63;2.65;;;13.30;99.90;;;13.15;96.98;97229.09;5005238;28;20358;-41
2022/06/15 03:31:11;;;;;;;4.28;3.00;;;13.40;99.90;;;13.15;96.62;97229.97;5004233;28;20454;-43
2022/06/15 03:33:37;;;;;;;7.22;2.78;;;13.40;99.90;;;13.20;96.66;97231.53;5003269;28;20045;-42
2022/06/15 03:36:04;;;;;;;4.00;2.75;;;13.40;99.90;;;13.17;97.59;97230.75;4998317;28;20045;-43
2022/06/15 03:38:31;;;;;;;6.18;2.90;;;13.40;99.90;;;13.16;97.95;97228.16;5000458;28;20030;-42
2022/06/15 03:40:57;;;;;;;5.10;3.13;;;13.40;99.90;;;13.14;98.48;97227.38;5005101;28;20029;-42
2022/06/15 03:43:23;;;;;;;5.35;3.20;;;13.40;99.90;;;12.91;98.82;97188.81;5005975;28;20036;-42
2022/06/15 03:45:49;;;;;;;3.85;3.00;;;13.40;99.90;;;13.14;98.69;97222.94;5001406;28;20389;-42
2022/06/15 03:48:15;;;;;;;6.30;3.30;;;13.40;99.90;;;13.16;99.46;97221.06;5005146;28;20033;-43
2022/06/15 03:50:41;;;;;;;6.15;3.28;;;13.40;99.90;;;13.11;99.80;97219.59;5002815;28;20127;-43
2022/06/15 03:53:09;;;;;;;4.85;2.85;;;13.40;99.90;;;13.15;100.00;97223.78;5003028;28;20045;-43
2022/06/15 03:55:35;;;;;;;6.05;3.30;;;13.40;99.90;;;13.17;100.00;97229.88;4999308;28;20040;-43
2022/06/15 03:58:01;;;;;;;6.20;3.20;;;13.40;99.90;;;13.18;100.00;97227.16;5004750;28;20064;-44
2022/06/15 04:00:30;;;;;;;5.43;2.95;;;13.40;99.90;;;13.17;100.00;97225.44;5001906;28;20041;-42
2022/06/15 04:02:56;;;;;;;4.00;3.13;;;13.40;99.90;;;13.17;100.00;97219.28;5002452;28;20065;-42
2022/06/15 04:05:37;;;;;;;6.60;3.30;;;13.40;99.90;;;13.23;100.00;97226.06;5002575;28;20038;-43
2022/06/15 04:10:48;;;;;;;5.13;3.00;;;13.50;99.90;;;13.38;100.00;97227.13;5005933;28;20102;-42
2022/06/15 04:13:15;;;;;;;5.28;3.33;;;13.50;99.90;;;13.45;100.00;97229.38;5010896;28;20045;-42
2022/06/15 04:15:41;;;;;;;4.75;3.20;;;13.60;99.90;;;13.52;100.00;97229.91;5008820;28;20033;-42
2022/06/15 04:18:07;;;;;;;5.00;3.28;;;13.70;99.90;;;13.66;100.00;97239.81;5004572;28;20245;-42
2022/06/15 04:20:32;;;;;;;4.13;3.00;;;13.80;99.90;;;13.77;100.00;97237.44;5015846;28;20033;-44
2022/06/15 04:23:01;;;;;;;4.57;2.78;;;13.90;99.90;;;13.87;99.52;97241.34;5003848;28;20037;-43
2022/06/15 04:25:28;;;;;;;5.20;3.20;;;14.00;99.90;;;13.98;98.67;97239.88;5003066;28;20464;-45
2022/06/15 04:27:55;;;;;;;5.53;2.72;;;14.20;99.90;;;14.05;98.23;97235.97;5011143;28;20116;-43
2022/06/15 04:30:20;;;;;;;3.45;2.70;;;14.20;99.90;;;14.10;98.04;97244.53;5002755;28;20052;-42
2022/06/15 04:32:48;;;;;;;3.53;2.65;;;14.30;99.90;;;14.14;97.86;97251.41;5005304;28;20041;-42
2022/06/15 04:35:14;;;;;;;4.88;2.60;;;14.30;99.90;;;14.17;97.69;97247.72;5000603;28;20520;-43
2022/06/15 04:37:39;;;;;;;3.85;2.67;;;14.40;99.90;;;14.28;97.26;97262.13;5001627;28;20041;-46
2022/06/15 04:40:07;;;;;;;3.83;2.80;;;14.50;99.90;;;14.35;97.00;97259.13;5003388;28;20366;-42
2022/06/15 04:42:33;;;;;;;5.40;3.00;;;14.50;99.90;;;14.39;97.21;97258.03;5004899;28;20022;-42
2022/06/15 04:44:58;;;;;;;7.85;3.10;;;14.60;99.90;;;14.50;96.26;97260.97;5002901;28;20087;-42
2022/06/15 04:47:24;;;;;;;5.05;3.03;;;14.70;99.90;;;14.64;95.81;97262.88;5000261;28;20044;-44
2022/06/15 04:49:50;;;;;;;4.18;2.95;;;14.80;99.90;;;14.80;94.99;97254.91;5004208;28;20539;-44
2022/06/15 04:52:16;;;;;;;3.42;2.45;;;14.90;99.90;;;14.92;93.88;97256.03;5001580;28;20046;-42
2022/06/15 04:54:42;;;;;;;5.53;2.55;;;15.10;99.90;;;15.12;92.20;97265.50;5002108;28;20144;-44
2022/06/15 04:57:08;;;;;;;3.15;2.30;;;15.20;99.90;;;15.50;89.79;97265.91;4994838;28;20381;-43
2022/06/15 04:59:33;;;;;;;4.30;2.60;;;15.40;99.90;;;16.19;85.69;97268.94;5002253;28;20616;-44
2022/06/15 05:01:59;;;;;;;2.63;2.08;;;15.80;99.90;;;17.05;80.30;97270.63;5003834;28;20034;-43
2022/06/15 05:04:27;;;;;;;3.38;2.20;;;16.40;99.90;;;18.17;74.50;97267.59;4997578;28;20033;-43
2022/06/15 05:06:53;;;;;;;3.40;2.17;;;17.00;99.90;;;19.06;69.53;97248.75;5001051;28;22386;-43
2022/06/15 05:09:19;;;;;;;3.35;2.10;;;17.80;99.90;;;20.32;64.75;97265.09;5005654;28;20045;-44
2022/06/15 05:11:45;;;;;;;2.92;1.80;;;18.70;99.90;;;21.35;58.84;97269.34;5004346;28;20037;-45
2022/06/15 05:14:11;;;;;;;4.85;2.30;;;19.50;99.90;;;22.57;53.08;97273.34;5006335;28;20112;-42
2022/06/15 05:16:38;;;;;;;3.28;2.10;;;20.40;99.90;;;23.86;48.21;97273.50;4992888;28;20044;-46
2022/06/15 05:19:04;;;;;;;4.38;2.65;;;21.40;98.70;;;24.82;44.73;97271.56;5001066;28;20064;-45
2022/06/15 05:21:30;;;;;;;5.05;2.50;;;22.20;95.70;;;25.55;41.52;97275.28;4999964;28;20495;-44
2022/06/15 05:23:57;;;;;;;4.63;2.63;;;22.90;92.60;;;26.16;38.81;97276.31;5007065;28;20037;-44
2022/06/15 05:26:26;;;;;;;4.68;2.80;;;23.50;90.00;;;26.85;38.22;97275.41;5003423;28;20451;-44
2022/06/15 05:28:52;;;;;;;3.60;2.53;;;24.10;86.60;;;27.09;36.95;97276.53;5006065;28;20042;-43
2022/06/15 05:31:21;;;;;;;4.45;2.05;;;24.50;82.80;;;27.06;37.43;97282.25;5005958;28;20040;-44
2022/06/15 05:33:53;;;;;;;2.83;1.77;;;24.60;81.10;;;26.56;37.94;97274.88;5006840;28;20299;-46
2022/06/15 05:36:24;;;;;;;4.10;2.80;;;24.50;80.30;;;25.65;39.13;97276.06;5008204;28;20432;-45
2022/06/15 05:38:50;;;;;;;4.40;2.50;;;24.20;79.60;;;24.64;40.83;97271.50;5034239;28;20034;-44
2022/06/15 05:41:16;;;;;;;2.75;2.30;;;23.70;80.40;;;23.71;43.14;97267.69;5012545;28;20083;-44
2022/06/15 05:43:49;;;;;;;4.28;2.63;;;23.10;82.40;;;22.93;44.18;97278.28;5012092;28;20367;-43
2022/06/15 05:46:20;;;;;;;6.32;2.70;;;22.50;83.40;;;22.33;46.05;97268.31;5007370;28;20112;-46
2022/06/15 05:48:46;;;;;;;5.43;2.97;;;22.00;85.50;;;21.75;47.48;97249.97;5004920;28;20033;-43
2022/06/15 05:51:11;;;;;;;11.95;3.50;;;21.60;87.60;;;21.48;49.29;97269.22;5008893;28;20025;-44
2022/06/15 05:53:37;;;;;;;3.88;2.65;;;21.30;89.50;;;21.16;50.57;97257.47;5006348;28;20088;-44
2022/06/15 05:56:03;;;;;;;7.05;3.58;;;21.00;90.40;;;20.95;52.13;97254.72;5024102;28;20118;-44
2022/06/15 05:58:29;;;;;;;7.43;4.13;;;20.80;91.00;;;20.67;53.34;97249.88;5006074;28;20029;-44
2022/06/15 06:00:55;;;;;;;6.45;3.38;;;20.60;91.60;;;20.50;54.48;97246.72;5001759;28;20146;-45
2022/06/15 06:03:20;;;;;;;9.40;3.67;;;20.50;92.10;;;20.40;54.86;97251.97;5004526;28;20478;-43
2022/06/15 06:05:46;;;;;;;7.13;3.40;;;20.40;92.40;;;20.37;55.17;97257.53;5003000;28;20128;-42
2022/06/15 06:08:12;;;;;;;6.90;3.30;;;20.30;92.40;;;20.33;54.87;97266.81;5004027;28;20034;-43
2022/06/15 06:10:37;;;;;;;10.35;3.67;;;20.30;92.40;;;20.28;55.42;97263.63;5006741;28;20060;-42
2022/06/15 06:13:03;;;;;;;8.10;3.60;;;20.30;92.50;;;20.21;55.24;97257.91;5008966;28;20175;-45
2022/06/15 06:15:30;;;;;;;6.53;3.28;;;20.30;92.60;;;20.24;55.86;97262.16;5009395;28;20049;-45
2022/06/15 06:17:56;;;;;;;7.03;3.08;;;20.20;92.80;;;20.33;56.44;97260.56;5000403;28;20577;-43
2022/06/15 06:20:21;;;;;;;8.23;4.07;;;20.30;93.10;;;20.39;54.65;97260.94;5004301;28;20033;-44
2022/06/15 06:22:47;;;;;;;4.57;2.80;;;20.40;92.90;;;20.36;55.00;97242.44;5008596;28;20462;-42
2022/06/15 06:25:13;;;;;;;5.43;3.05;;;20.40;93.00;;;20.58;55.44;97260.34;5013343;28;20022;-44
2022/06/15 06:27:38;;;;;;;9.10;3.33;;;20.50;92.90;;;20.58;54.67;97256.81;5004016;28;20038;-43
2022/06/15 06:30:05;;;;;;;6.45;3.38;;;20.60;92.40;;;20.65;54.74;97259.88;5000254;28;20033;-43
2022/06/15 06:32:31;;;;;;;8.57;3.65;;;20.60;92.50;;;20.64;53.54;97256.34;5003374;28;20509;-44
2022/06/15 06:34:56;;;;;;;9.73;3.42;;;20.70;92.10;;;20.72;54.55;97255.72;5011278;28;20041;-42
2022/06/15 06:37:23;;;;;;;4.72;2.90;;;20.70;92.30;;;20.78;54.02;97264.13;4994825;28;20021;-42
2022/06/15 06:39:55;;;;;;;5.03;3.22;;;20.80;92.20;;;20.76;53.81;97241.97;5004577;28;20033;-46
2022/06/15 06:42:21;;;;;;;8.43;3.63;;;20.80;92.00;;;20.94;53.09;97268.25;5006800;28;20159;-42
2022/06/15 06:44:46;;;;;;;5.63;3.03;;;20.90;91.80;;;21.03;53.46;97263.97;5005357;28;20490;-45
2022/06/15 06:47:12;;;;;;;9.35;3.33;;;21.10;91.90;;;21.11;51.87;97261.53;5007135;28;20038;-42
2022/06/15 06:49:38;;;;;;;5.13;2.88;;;21.10;91.30;;;21.20;52.71;97265.28;5006583;28;20140;-42
2022/06/15 06:52:04;;;;;;;5.93;3.40;;;21.20;91.50;;;21.35;52.18;97264.00;4997695;28;20041;-43
2022/06/15 06:54:31;;;;;;;3.83;2.58;;;21.40;91.40;;;21.48;51.34;97274.59;5006223;28;20116;-46
2022/06/15 06:56:57;;;;;;;5.10;3.38;;;21.40;91.20;;;21.58;51.66;97267.47;5003158;28;20029;-41
2022/06/15 06:59:23;;;;;;;5.18;3.13;;;21.50;90.80;;;21.66;50.85;97267.69;5003119;28;20021;-42
2022/06/15 07:01:49;;;;;;;7.30;2.85;;;21.60;90.90;;;21.74;51.07;97265.19;5006016;28;20496;-41
2022/06/15 07:04:17;;;;;;;7.97;2.97;;;21.70;90.70;;;21.83;50.59;97262.72;5007784;28;20314;-41
2022/06/15 07:06:44;;;;;;;4.97;2.75;;;21.80;90.50;;;21.91;50.27;97263.78;5004542;28;20045;-41
2022/06/15 07:09:11;;;;;;;3.90;2.70;;;21.90;90.30;;;21.93;50.50;97259.13;5006216;28;20049;-42
2022/06/15 07:11:37;;;;;;;4.78;2.97;;;22.00;90.30;;;21.99;49.66;97263.13;4992742;28;20485;-43
2022/06/15 07:14:05;;;;;;;5.43;3.00;;;22.00;89.70;;;22.05;49.76;97267.94;5006618;28;20061;-42
2022/06/15 07:16:30;;;;;;;7.00;2.58;;;22.10;90.00;;;22.18;50.21;97267.78;5003919;28;20037;-42
2022/06/15 07:18:56;;;;;;;3.97;2.95;;;22.20;90.20;;;22.32;49.52;97263.06;5008466;28;20025;-42
2022/06/15 07:21:26;;;;;;;8.90;3.28;;;22.30;89.50;;;22.38;50.63;97270.56;5012032;28;20040;-42
2022/06/15 07:23:56;;;;;;;4.95;2.78;;;22.40;88.50;;;22.46;48.10;97265.38;5011637;28;20556;-42
2022/06/15 07:26:27;;;;;;;3.72;2.42;;;22.40;87.70;;;22.49;47.65;97265.13;5010841;28;20033;-42
2022/06/15 07:28:53;;;;;;;5.22;2.60;;;22.40;86.90;;;22.59;47.42;97266.00;5006307;28;20032;-42
2022/06/15 07:31:37;;;;;;;3.50;2.55;;;22.50;86.80;;;22.71;47.52;97268.59;5031873;23;20061;-37
2022/06/15 07:34:05;;;;;;;4.40;2.40;;;22.60;86.40;;;22.80;46.61;97271.31;5024107;28;20125;-37
2022/06/15 07:36:30;;;;;;;4.03;2.75;;;22.80;86.40;;;22.90;47.71;97276.75;5025761;28;20025;-37
2022/06/15 07:38:57;;;;;;;5.57;2.55;;;22.90;85.60;;;22.99;46.80;97275.91;5029847;28;21304;-38
2022/06/15 07:41:25;;;;;;;5.25;2.70;;;22.90;85.00;;;23.01;45.81;97279.31;5008059;28;20037;-37
2022/06/15 07:43:52;;;;;;;6.60;2.80;;;23.00;84.00;;;23.05;45.03;97272.69;5023134;28;20024;-37
2022/06/15 07:46:18;;;;;;;3.70;2.20;;;23.10;83.30;;;23.19;46.26;97276.00;5020130;28;20485;-37
2022/06/15 07:51:44;;;;;;;4.20;2.50;;;23.20;84.80;;;23.37;44.95;97271.63;5013383;28;20068;-37
2022/06/15 07:54:14;;;;;;;5.57;3.00;;;23.30;82.90;;;23.41;44.39;97275.72;5018718;28;20205;-37
2022/06/15 07:56:41;;;;;;;4.65;2.63;;;23.40;81.90;;;23.36;44.77;97252.94;5008627;28;20025;-37
2022/06/15 07:59:07;;;;;;;7.55;2.90;;;23.40;81.70;;;23.47;44.78;97277.00;5004282;28;20033;-37
2022/06/15 08:01:34;;;;;;;4.07;2.63;;;23.50;81.70;;;23.42;44.80;97274.75;5006281;28;20036;-37
2022/06/15 08:04:00;;;;;;;4.60;2.67;;;23.40;81.20;;;23.47;45.40;97276.16;5003921;28;20046;-37
2022/06/15 08:06:27;;;;;;;4.68;2.58;;;23.50;82.00;;;23.57;45.71;97282.41;5007568;28;20028;-37
2022/06/15 08:08:52;;;;;;;5.65;2.25;;;23.50;82.90;;;23.65;44.91;97282.53;5003946;28;20117;-37
2022/06/15 08:11:19;;;;;;;4.35;2.60;;;23.60;82.20;;;23.71;44.83;97284.69;5011697;28;20030;-37
2022/06/15 08:13:46;;;;;;;8.38;3.28;;;23.60;81.90;;;23.73;44.43;97284.53;5011350;28;20041;-38
2022/06/15 08:16:14;;;;;;;5.07;2.50;;;23.70;80.80;;;23.74;44.58;97281.72;5009879;28;20052;-37
2022/06/15 08:18:48;;;;;;;7.35;3.25;;;23.70;81.00;;;23.77;43.54;97285.94;5015320;28;20033;-37
2022/06/15 08:21:20;;;;;;;5.63;2.63;;;23.80;79.50;;;23.81;43.59;97280.19;5015123;28;20369;-37
2022/06/15 08:23:50;;;;;;;7.30;2.45;;;23.80;79.20;;;23.90;43.73;97285.69;5008590;28;20485;-37
2022/06/15 08:26:19;;;;;;;5.05;2.80;;;23.80;79.50;;;23.93;43.10;97280.03;5018836;28;20386;-38
2022/06/15 08:28:51;;;;;;;6.43;2.63;;;23.90;79.00;;;23.98;43.83;97277.75;5013482;28;20021;-37
2022/06/15 08:31:17;;;;;;;3.45;2.80;;;23.90;78.80;;;24.11;44.94;97277.44;5008679;28;20057;-37
2022/06/15 08:33:43;;;;;;;3.90;2.80;;;24.10;81.30;;;24.35;42.40;97287.72;5003239;28;20525;-37
2022/06/15 08:36:11;;;;;;;3.10;2.42;;;24.20;77.60;;;24.31;42.76;97281.78;5012032;28;20034;-37
2022/06/15 08:38:36;;;;;;;4.65;2.70;;;24.20;77.80;;;24.34;45.79;97284.19;5009424;28;20029;-37
2022/06/15 08:41:36;;;;;;;4.95;2.58;;;24.30;80.50;;;24.45;44.54;97283.16;5010321;28;20458;-37
2022/06/15 08:44:18;;;;;;;5.47;2.83;;;24.40;81.80;;;24.53;44.67;97285.16;5014738;28;20084;-37
2022/06/15 08:47:28;;;;;;;5.72;2.50;;;24.50;81.30;;;24.64;44.76;97281.44;5011974;28;20162;-37
2022/06/15 08:50:12;;;;;;;4.97;2.60;;;24.60;80.40;;;24.65;47.65;97283.13;5009111;28;20127;-37
2022/06/15 08:52:51;;;;;;;11.05;3.10;;;24.60;83.90;;;24.66;44.65;97288.38;5016670;28;20029;-37
2022/06/15 08:55:36;;;;;;;3.97;2.70;;;24.60;81.60;;;24.73;45.29;97294.88;5011778;28;20507;-37
2022/06/15 08:58:18;;;;;;;8.55;3.10;;;24.70;81.50;;;24.65;43.14;97288.53;5018699;28;20047;-37
2022/06/15 09:00:44;;;;;;;;;;;24.70;78.20;;;24.57;43.87;97290.13;5029761;28;20033;-37
2022/06/15 09:03:13;;;;;;;5.13;3.10;;;24.60;78.70;;;24.61;43.49;97287.13;5010505;28;19921;-37
2022/06/15 09:06:30;;;;;;;5.25;2.80;;;24.60;78.90;;;24.63;44.03;97287.84;5002875;28;20657;-37
2022/06/15 09:09:37;;;;;;;4.30;2.95;;;24.60;78.40;;;24.64;44.12;97289.50;4999828;28;20033;-37
2022/06/15 09:13:00;;;;;;;8.75;3.42;;;24.60;78.90;;;24.64;44.89;97290.38;5010780;28;20042;-37
2022/06/15 09:15:31;;;;;;;5.03;2.90;;;24.60;79.60;;;24.78;43.99;97289.03;5011491;28;20049;-37
2022/06/15 09:18:02;;;;;;;4.88;3.17;;;24.70;79.20;;;24.75;43.60;97284.78;5005444;28;20033;-37
2022/06/15 09:20:40;;;;;;;7.82;3.00;;;24.70;77.80;;;24.91;43.82;97291.41;5006721;28;20473;-38
2022/06/15 09:23:14;;;;;;;6.38;3.25;;;24.90;78.50;;;25.04;43.64;97294.59;5008912;28;20033;-37
2022/06/15 09:25:48;;;;;;;5.90;2.90;;;25.00;77.80;;;25.14;41.41;97291.84;5024716;28;20075;-37
2022/06/15 09:28:26;;;;;;;4.30;2.88;;;25.10;75.80;;;25.14;42.44;97299.94;5007791;28;20026;-37
2022/06/15 09:30:55;;;;;;;8.35;3.35;;;25.10;75.10;;;25.11;41.27;97295.69;5008123;28;20536;-37
2022/06/15 09:33:32;;;;;;;5.03;2.97;;;25.10;74.40;;;25.04;42.53;97293.75;5003323;28;20457;-37
2022/06/15 09:36:13;;;;;;;4.32;2.97;;;25.00;75.20;;;25.06;41.54;97297.16;5009768;28;20103;-37
2022/06/15 09:38:41;;;;;;;3.63;2.55;;;25.00;74.40;;;25.10;42.55;97293.13;5004280;28;20555;-37
2022/06/15 09:41:28;;;;;;;6.65;3.08;;;25.00;75.40;;;25.21;42.53;97294.78;5001358;28;20042;-37
2022/06/15 09:44:17;;;;;;;4.93;2.90;;;25.10;75.80;;;25.30;41.75;97293.91;5009656;28;20111;-37
2022/06/15 09:46:48;;;;;;;3.55;2.58;;;25.20;75.70;;;25.44;41.77;97290.69;5010150;28;20034;-37
2022/06/15 09:49:25;;;;;;;5.07;2.58;;;25.40;75.20;;;25.56;42.13;97287.78;5006817;28;20037;-37
2022/06/15 09:52:21;;;;;;;4.90;2.78;;;25.50;75.10;;;25.63;40.54;97284.31;5007871;28;20052;-37
2022/06/15 09:55:16;;;;;;;4.93;2.95;;;25.60;73.40;;;25.77;40.26;97282.03;5010803;28;20044;-37
2022/06/15 09:57:42;;;;;;;3.78;2.70;;;25.70;72.20;;;25.87;40.68;97286.34;5021803;28;20037;-37
2022/06/15 10:00:14;;;;;;;3.20;2.50;;;25.80;73.40;;;25.99;41.18;97278.91;5012433;28;20037;-37
2022/06/15 10:02:46;;;;;;;8.15;3.20;;;25.90;73.70;;;26.10;39.64;97286.75;5010859;28;20029;-38
2022/06/15 10:05:32;;;;;;;8.73;3.45;;;26.00;71.10;;;26.17;39.31;97281.56;5006846;28;20120;-37
2022/06/15 10:08:04;;;;;;;6.30;2.90;;;26.20;70.90;;;26.27;39.54;97286.88;5009369;28;20295;-37
2022/06/15 10:10:35;;;;;;;5.25;2.90;;;26.20;70.90;;;26.28;39.11;97277.75;5004518;28;20072;-37
2022/06/15 10:13:29;;;;;;;5.22;2.85;;;26.30;69.80;;;26.39;38.01;97285.59;5007669;28;20045;-37
2022/06/15 10:16:01;;;;;;;4.15;2.30;;;26.40;68.10;;;26.43;37.48;97280.72;5006301;28;20548;-37
2022/06/15 10:18:48;;;;;;;5.22;2.38;;;26.40;67.60;;;26.44;35.61;97283.28;5004268;28;20037;-37
2022/06/15 10:21:14;;;;;;;5.05;2.70;;;26.40;64.00;;;26.26;34.61;97288.72;5008576;28;20442;-37
2022/06/15 10:23:46;;;;;;;2.50;1.85;;;26.30;61.80;;;26.28;35.62;97284.00;4999071;28;20048;-37
2022/06/15 10:26:28;;;;;;;;;;;26.30;63.30;;;26.38;36.50;97286.63;5009091;28;20163;-37
2022/06/15 10:28:55;;;;;;;3.20;2.20;;;26.30;65.30;;;26.43;35.04;97284.31;5011637;28;19964;-38
2022/06/15 10:31:32;;;;;;;3.13;2.08;;;26.40;61.50;;;26.41;34.10;97280.03;5006701;28;20045;-38
2022/06/15 10:34:25;;;;;;;3.72;2.20;;;26.40;60.90;;;26.37;34.12;97284.06;5007760;28;20052;-38
2022/06/15 10:37:05;;;;;;;2.78;2.00;;;26.40;59.90;;;26.41;34.90;97289.00;5004118;28;20040;-38
2022/06/15 10:39:35;;;;;;;4.65;2.00;;;26.40;61.60;;;26.51;35.19;97288.91;5018651;28;20053;-37
2022/06/15 10:42:20;;;;;;;4.82;2.40;;;26.40;62.00;;;26.57;33.84;97277.44;5008213;28;20091;-38
2022/06/15 10:44:57;;;;;;;3.42;2.40;;;26.50;59.90;;;26.64;35.09;97278.50;5005860;28;20045;-37
2022/06/15 10:47:28;;;;;;;5.57;1.95;;;26.60;61.50;;;26.72;36.24;97275.03;5001769;28;20115;-37